Time,TemperatureF,DewpointF,PressureIn,WindDirection,WindDirectionDegrees,WindSpeedMPH,WindSpeedGustMPH,Humidity,HourlyPrecipIn,Conditions,Clouds,dailyrainin,SoftwareType,DateUTC
2013-04-26 00:00:00,52.0,47.3,30.17,WNW,298,1.0,6.0,84,0.00,,,0.00,WeatherCatV1.12B45,2013-04-26 07:00:00,
2013-04-26 00:05:00,52.0,47.3,30.17,WNW,297,2.0,7.0,84,0.00,,,0.00,WeatherCatV1.12B45,2013-04-26 07:05:00,
2013-04-26 00:10:00,52.0,47.3,30.17,WNW,297,2.0,7.0,84,0.00,,,0.00,WeatherCatV1.12B45,2013-04-26 07:10:00,
2013-04-26 00:15:00,51.9,47.2,30.17,NW,305,2.0,5.0,84,0.00,,,0.00,WeatherCatV1.12B45,2013-04-26 07:15:00,
2013-04-26 00:20:00,51.9,47.2,30.17,NW,304,2.0,6.0,84,0.00,,,0.00,WeatherCatV1.12B45,2013-04-26 07:20:00,
2013-04-26 00:25:00,51.9,47.2,30.17,NW,311,1.0,0.0,84,0.00,,,0.00,WeatherCatV1.12B45,2013-04-26 07:25:00,
2013-04-26 00:30:00,51.8,47.1,30.18,NW,306,1.0,0.0,84,0.00,,,0.00,WeatherCatV1.12B45,2013-04-26 07:30:00,
2013-04-26 00:35:00,51.7,47.0,30.18,NW,310,0.0,0.0,84,0.00,,,0.00,WeatherCatV1.12B45,2013-04-26 07:35:00,
2013-04-26 00:40:00,51.6,47.2,30.18,NW,310,0.0,0.0,85,0.00,,,0.00,WeatherCatV1.12B45,2013-04-26 07:40:00,
2013-04-26 00:45:00,51.5,47.1,30.18,NW,310,0.0,0.0,85,0.00,,,0.00,WeatherCatV1.12B45,2013-04-26 07:45:00,
2013-04-26 00:50:00,51.4,47.4,30.18,NW,310,0.0,0.0,86,0.00,,,0.00,WeatherCatV1.12B45,2013-04-26 07:50:00,
2013-04-26 00:55:00,51.2,47.2,30.18,NW,310,0.0,0.0,86,0.00,,,0.00,WeatherCatV1.12B45,2013-04-26 07:55:00,
2013-04-26 01:00:00,51.0,47.0,30.18,NW,310,0.0,0.0,86,0.00,,,0.00,WeatherCatV1.12B45,2013-04-26 08:00:00,
2013-04-26 01:05:00,50.6,46.6,30.18,NW,310,0.0,0.0,86,0.00,,,0.00,WeatherCatV1.12B45,2013-04-26 08:05:00,
2013-04-26 01:10:00,50.5,46.8,30.18,NW,310,0.0,0.0,87,0.00,,,0.00,WeatherCatV1.12B45,2013-04-26 08:10:00,
2013-04-26 01:15:00,50.3,46.9,30.18,NW,310,0.0,0.0,88,0.00,,,0.00,WeatherCatV1.12B45,2013-04-26 08:15:00,
2013-04-26 01:20:00,50.0,46.6,30.18,NW,310,0.0,0.0,88,0.00,,,0.00,WeatherCatV1.12B45,2013-04-26 08:20:00,
2013-04-26 01:25:00,49.9,46.8,30.18,NW,310,0.0,0.0,89,0.00,,,0.00,WeatherCatV1.12B45,2013-04-26 08:25:00,
2013-04-26 01:30:00,49.9,46.8,30.17,NW,310,0.0,0.0,89,0.00,,,0.00,WeatherCatV1.12B45,2013-04-26 08:30:00,
2013-04-26 01:35:00,49.7,46.6,30.18,NW,310,0.0,0.0,89,0.00,,,0.00,WeatherCatV1.12B45,2013-04-26 08:35:00,
2013-04-26 01:40:00,49.5,46.1,30.17,NW,310,0.0,0.0,88,0.00,,,0.00,WeatherCatV1.12B45,2013-04-26 08:40:00,
2013-04-26 01:45:00,49.2,46.1,30.17,NW,310,0.0,0.0,89,0.00,,,0.00,WeatherCatV1.12B45,2013-04-26 08:45:00,
2013-04-26 01:50:00,49.2,46.1,30.17,NW,310,0.0,0.0,89,0.00,,,0.00,WeatherCatV1.12B45,2013-04-26 08:50:00,
2013-04-26 01:55:00,49.1,46.0,30.17,NW,310,0.0,0.0,89,0.00,,,0.00,WeatherCatV1.12B45,2013-04-26 08:55:00,
2013-04-26 02:00:00,48.8,45.7,30.17,NW,310,0.0,0.0,89,0.00,,,0.00,WeatherCatV1.12B45,2013-04-26 09:00:00,
2013-04-26 02:05:00,48.7,45.6,30.18,NW,310,0.0,0.0,89,0.00,,,0.00,WeatherCatV1.12B45,2013-04-26 09:05:00,
2013-04-26 02:10:00,48.6,45.5,30.18,NW,310,0.0,0.0,89,0.00,,,0.00,WeatherCatV1.12B45,2013-04-26 09:10:00,
2013-04-26 02:15:00,48.5,45.7,30.18,NW,310,0.0,0.0,90,0.00,,,0.00,WeatherCatV1.12B45,2013-04-26 09:15:00,
2013-04-26 02:20:00,48.5,45.7,30.18,NW,310,0.0,0.0,90,0.00,,,0.00,WeatherCatV1.12B45,2013-04-26 09:20:00,
2013-04-26 02:25:00,48.4,45.6,30.17,NW,310,0.0,0.0,90,0.00,,,0.00,WeatherCatV1.12B45,2013-04-26 09:25:00,
2013-04-26 02:30:00,48.3,45.5,30.18,NW,310,0.0,0.0,90,0.00,,,0.00,WeatherCatV1.12B45,2013-04-26 09:30:00,
2013-04-26 02:35:00,48.3,45.5,30.18,NW,310,0.0,0.0,90,0.00,,,0.00,WeatherCatV1.12B45,2013-04-26 09:35:00,
2013-04-26 02:40:00,48.3,45.5,30.17,NW,310,0.0,0.0,90,0.00,,,0.00,WeatherCatV1.12B45,2013-04-26 09:40:00,
2013-04-26 02:45:00,48.2,45.4,30.18,NW,310,0.0,0.0,90,0.00,,,0.00,WeatherCatV1.12B45,2013-04-26 09:45:00,
2013-04-26 02:50:00,48.2,45.7,30.17,NW,310,0.0,0.0,91,0.00,,,0.00,WeatherCatV1.12B45,2013-04-26 09:50:00,
2013-04-26 02:55:00,48.1,45.6,30.18,NW,310,0.0,0.0,91,0.00,,,0.00,WeatherCatV1.12B45,2013-04-26 09:55:00,
2013-04-26 03:00:00,48.2,46.0,30.18,NW,310,0.0,0.0,92,0.00,,,0.00,WeatherCatV1.12B45,2013-04-26 10:00:00,
2013-04-26 03:05:00,48.3,46.1,30.18,NW,310,0.0,0.0,92,0.00,,,0.00,WeatherCatV1.12B45,2013-04-26 10:05:00,
2013-04-26 03:10:00,48.5,46.3,30.18,NW,310,0.0,0.0,92,0.00,,,0.00,WeatherCatV1.12B45,2013-04-26 10:10:00,
2013-04-26 03:15:00,48.5,46.3,30.18,NW,310,0.0,0.0,92,0.00,,,0.00,WeatherCatV1.12B45,2013-04-26 10:15:00,
2013-04-26 03:20:00,48.5,46.0,30.18,NW,310,0.0,0.0,91,0.00,,,0.00,WeatherCatV1.12B45,2013-04-26 10:20:00,
2013-04-26 03:25:00,48.3,45.8,30.18,NW,310,0.0,0.0,91,0.00,,,0.00,WeatherCatV1.12B45,2013-04-26 10:25:00,
2013-04-26 03:30:00,48.4,46.2,30.18,NW,310,0.0,0.0,92,0.00,,,0.00,WeatherCatV1.12B45,2013-04-26 10:30:00,
2013-04-26 03:35:00,48.3,46.1,30.18,NW,310,0.0,0.0,92,0.00,,,0.00,WeatherCatV1.12B45,2013-04-26 10:35:00,
2013-04-26 03:40:00,48.3,46.1,30.18,NW,310,0.0,0.0,92,0.00,,,0.00,WeatherCatV1.12B45,2013-04-26 10:40:00,
2013-04-26 03:45:00,48.6,46.7,30.18,NW,310,0.0,0.0,93,0.00,,,0.00,WeatherCatV1.12B45,2013-04-26 10:45:00,
2013-04-26 03:50:00,49.0,47.1,30.18,NW,310,0.0,0.0,93,0.00,,,0.00,WeatherCatV1.12B45,2013-04-26 10:50:00,
2013-04-26 03:55:00,49.3,47.4,30.19,NW,310,0.0,0.0,93,0.00,,,0.00,WeatherCatV1.12B45,2013-04-26 10:55:00,
2013-04-26 04:00:00,49.6,47.4,30.18,WNW,295,1.0,6.0,92,0.00,,,0.00,WeatherCatV1.12B45,2013-04-26 11:00:00,
2013-04-26 04:05:00,50.3,47.2,30.19,WNW,285,2.0,6.0,89,0.00,,,0.00,WeatherCatV1.12B45,2013-04-26 11:05:00,
2013-04-26 04:10:00,50.8,47.4,30.18,West,280,4.0,5.0,88,0.00,,,0.00,WeatherCatV1.12B45,2013-04-26 11:10:00,
2013-04-26 04:15:00,51.1,47.4,30.19,WNW,282,5.0,10.0,87,0.00,,,0.00,WeatherCatV1.12B45,2013-04-26 11:15:00,
2013-04-26 04:20:00,51.2,47.2,30.19,WNW,287,5.0,6.0,86,0.00,,,0.00,WeatherCatV1.12B45,2013-04-26 11:20:00,
2013-04-26 04:25:00,51.3,47.3,30.19,WNW,290,4.0,7.0,86,0.00,,,0.00,WeatherCatV1.12B45,2013-04-26 11:25:00,
2013-04-26 04:30:00,51.2,47.2,30.19,WNW,290,4.0,7.0,86,0.00,,,0.00,WeatherCatV1.12B45,2013-04-26 11:30:00,
2013-04-26 04:35:00,51.1,47.4,30.19,NW,309,2.0,0.0,87,0.00,,,0.00,WeatherCatV1.12B45,2013-04-26 11:35:00,
2013-04-26 04:40:00,50.9,47.2,30.19,NW,312,0.0,0.0,87,0.00,,,0.00,WeatherCatV1.12B45,2013-04-26 11:40:00,
2013-04-26 04:45:00,50.6,47.2,30.19,NW,323,0.0,0.0,88,0.00,,,0.00,WeatherCatV1.12B45,2013-04-26 11:45:00,
2013-04-26 04:50:00,50.3,46.9,30.19,NW,326,0.0,0.0,88,0.00,,,0.00,WeatherCatV1.12B45,2013-04-26 11:50:00,
2013-04-26 04:55:00,50.1,47.0,30.19,NW,326,0.0,0.0,89,0.00,,,0.00,WeatherCatV1.12B45,2013-04-26 11:55:00,
2013-04-26 05:00:00,49.8,46.7,30.19,NW,326,0.0,0.0,89,0.00,,,0.00,WeatherCatV1.12B45,2013-04-26 12:00:00,
2013-04-26 05:05:00,49.3,46.5,30.19,NW,326,0.0,0.0,90,0.00,,,0.00,WeatherCatV1.12B45,2013-04-26 12:05:00,
2013-04-26 05:10:00,48.9,46.1,30.19,NW,326,0.0,0.0,90,0.00,,,0.00,WeatherCatV1.12B45,2013-04-26 12:10:00,
2013-04-26 05:15:00,48.5,45.7,30.19,NW,326,0.0,0.0,90,0.00,,,0.00,WeatherCatV1.12B45,2013-04-26 12:15:00,
2013-04-26 05:20:00,48.4,45.9,30.19,NW,326,0.0,0.0,91,0.00,,,0.00,WeatherCatV1.12B45,2013-04-26 12:20:00,
2013-04-26 05:25:00,48.4,46.2,30.19,NW,326,0.0,0.0,92,0.00,,,0.00,WeatherCatV1.12B45,2013-04-26 12:25:00,
2013-04-26 05:30:00,48.4,46.2,30.20,NW,326,0.0,0.0,92,0.00,,,0.00,WeatherCatV1.12B45,2013-04-26 12:30:00,
2013-04-26 05:35:00,48.5,46.3,30.20,NW,326,0.0,0.0,92,0.00,,,0.00,WeatherCatV1.12B45,2013-04-26 12:35:00,
2013-04-26 05:40:00,48.4,45.9,30.20,NW,326,0.0,0.0,91,0.00,,,0.00,WeatherCatV1.12B45,2013-04-26 12:40:00,
2013-04-26 05:45:00,48.5,46.3,30.20,NW,326,0.0,0.0,92,0.00,,,0.00,WeatherCatV1.12B45,2013-04-26 12:45:00,
2013-04-26 05:50:00,48.4,45.9,30.20,NW,326,0.0,0.0,91,0.00,,,0.00,WeatherCatV1.12B45,2013-04-26 12:50:00,
2013-04-26 05:55:00,48.3,45.8,30.20,NW,326,0.0,0.0,91,0.00,,,0.00,WeatherCatV1.12B45,2013-04-26 12:55:00,
2013-04-26 06:00:00,48.2,45.7,30.20,NW,326,0.0,0.0,91,0.00,,,0.00,WeatherCatV1.12B45,2013-04-26 13:00:00,
2013-04-26 06:05:00,48.0,45.5,30.21,NW,326,0.0,0.0,91,0.00,,,0.00,WeatherCatV1.12B45,2013-04-26 13:05:00,
2013-04-26 06:10:00,47.9,45.4,30.21,NW,326,0.0,0.0,91,0.00,,,0.00,WeatherCatV1.12B45,2013-04-26 13:10:00,
2013-04-26 06:15:00,48.1,45.6,30.21,NW,326,0.0,0.0,91,0.00,,,0.00,WeatherCatV1.12B45,2013-04-26 13:15:00,
2013-04-26 06:20:00,48.4,46.2,30.21,NW,326,0.0,0.0,92,0.00,,,0.00,WeatherCatV1.12B45,2013-04-26 13:20:00,
2013-04-26 06:25:00,48.7,46.2,30.21,NW,326,0.0,0.0,91,0.00,,,0.00,WeatherCatV1.12B45,2013-04-26 13:25:00,
2013-04-26 06:30:00,49.2,46.7,30.21,NW,326,0.0,0.0,91,0.00,,,0.00,WeatherCatV1.12B45,2013-04-26 13:30:00,
2013-04-26 06:35:00,49.5,47.0,30.21,NW,326,0.0,0.0,91,0.00,,,0.00,WeatherCatV1.12B45,2013-04-26 13:35:00,
2013-04-26 06:40:00,49.6,47.1,30.22,NW,326,0.0,0.0,91,0.00,,,0.00,WeatherCatV1.12B45,2013-04-26 13:40:00,
2013-04-26 06:45:00,50.0,47.2,30.22,NW,326,0.0,0.0,90,0.00,,,0.00,WeatherCatV1.12B45,2013-04-26 13:45:00,
2013-04-26 06:50:00,50.3,47.8,30.22,NW,326,0.0,0.0,91,0.00,,,0.00,WeatherCatV1.12B45,2013-04-26 13:50:00,
2013-04-26 06:55:00,50.4,47.6,30.22,NW,326,0.0,0.0,90,0.00,,,0.00,WeatherCatV1.12B45,2013-04-26 13:55:00,
2013-04-26 07:00:00,50.6,47.8,30.23,NW,326,0.0,0.0,90,0.00,,,0.00,WeatherCatV1.12B45,2013-04-26 14:00:00,
2013-04-26 07:05:00,50.7,47.9,30.23,NW,326,0.0,0.0,90,0.00,,,0.00,WeatherCatV1.12B45,2013-04-26 14:05:00,
2013-04-26 07:10:00,50.7,47.9,30.23,NW,326,0.0,0.0,90,0.00,,,0.00,WeatherCatV1.12B45,2013-04-26 14:10:00,
2013-04-26 07:15:00,50.8,47.4,30.23,WNW,293,0.0,1.0,88,0.00,,,0.00,WeatherCatV1.12B45,2013-04-26 14:15:00,
2013-04-26 07:20:00,50.8,47.4,30.24,West,277,0.0,4.0,88,0.00,,,0.00,WeatherCatV1.12B45,2013-04-26 14:20:00,
2013-04-26 07:25:00,51.0,47.3,30.24,WSW,258,1.0,5.0,87,0.00,,,0.00,WeatherCatV1.12B45,2013-04-26 14:25:00,
2013-04-26 07:30:00,51.0,47.0,30.24,WSW,258,2.0,5.0,86,0.00,,,0.00,WeatherCatV1.12B45,2013-04-26 14:30:00,
2013-04-26 07:35:00,51.0,47.0,30.24,WSW,246,2.0,4.0,86,0.00,,,0.00,WeatherCatV1.12B45,2013-04-26 14:35:00,
2013-04-26 07:40:00,51.0,47.0,30.25,WSW,238,1.0,0.0,86,0.00,,,0.00,WeatherCatV1.12B45,2013-04-26 14:40:00,
2013-04-26 07:45:00,51.0,47.0,30.25,West,272,0.0,0.0,86,0.00,,,0.00,WeatherCatV1.12B45,2013-04-26 14:45:00,
2013-04-26 07:50:00,51.1,47.1,30.25,WNW,291,0.0,1.0,86,0.00,,,0.00,WeatherCatV1.12B45,2013-04-26 14:50:00,
2013-04-26 07:55:00,51.0,47.0,30.25,NW,304,0.0,0.0,86,0.00,,,0.00,WeatherCatV1.12B45,2013-04-26 14:55:00,
2013-04-26 08:00:00,50.9,46.9,30.26,WNW,287,1.0,0.0,86,0.00,,,0.00,WeatherCatV1.12B45,2013-04-26 15:00:00,
2013-04-26 08:05:00,50.9,46.9,30.26,WNW,302,0.0,3.0,86,0.00,,,0.00,WeatherCatV1.12B45,2013-04-26 15:05:00,
2013-04-26 08:10:00,50.9,46.9,30.26,NW,304,0.0,0.0,86,0.00,,,0.00,WeatherCatV1.12B45,2013-04-26 15:10:00,
2013-04-26 08:15:00,51.0,47.0,30.26,NW,306,0.0,0.0,86,0.00,,,0.00,WeatherCatV1.12B45,2013-04-26 15:15:00,
2013-04-26 08:20:00,51.0,46.7,30.27,West,271,1.0,4.0,85,0.00,,,0.00,WeatherCatV1.12B45,2013-04-26 15:20:00,
2013-04-26 08:25:00,51.0,47.0,30.27,WNW,285,1.0,4.0,86,0.00,,,0.00,WeatherCatV1.12B45,2013-04-26 15:25:00,
2013-04-26 08:30:00,51.0,46.7,30.27,West,267,1.0,4.0,85,0.00,,,0.00,WeatherCatV1.12B45,2013-04-26 15:30:00,
2013-04-26 08:35:00,51.1,46.7,30.26,WSW,256,1.0,0.0,85,0.00,,,0.00,WeatherCatV1.12B45,2013-04-26 15:35:00,
2013-04-26 08:40:00,51.1,46.7,30.26,WNW,293,0.0,0.0,85,0.00,,,0.00,WeatherCatV1.12B45,2013-04-26 15:40:00,
2013-04-26 08:45:00,51.2,46.8,30.26,NW,308,0.0,0.0,85,0.00,,,0.00,WeatherCatV1.12B45,2013-04-26 15:45:00,
2013-04-26 08:50:00,51.4,47.0,30.26,NW,314,0.0,0.0,85,0.00,,,0.00,WeatherCatV1.12B45,2013-04-26 15:50:00,
2013-04-26 08:55:00,51.5,47.1,30.26,NW,316,0.0,0.0,85,0.00,,,0.00,WeatherCatV1.12B45,2013-04-26 15:55:00,
2013-04-26 09:00:00,51.6,46.9,30.27,NW,316,0.0,0.0,84,0.00,,,0.00,WeatherCatV1.12B45,2013-04-26 16:00:00,
2013-04-26 09:05:00,51.8,47.1,30.27,NW,316,0.0,0.0,84,0.00,,,0.00,WeatherCatV1.12B45,2013-04-26 16:05:00,
2013-04-26 09:10:00,51.8,47.4,30.27,NW,316,0.0,0.0,85,0.00,,,0.00,WeatherCatV1.12B45,2013-04-26 16:10:00,
2013-04-26 09:15:00,51.9,47.2,30.27,NW,316,0.0,0.0,84,0.00,,,0.00,WeatherCatV1.12B45,2013-04-26 16:15:00,
2013-04-26 09:20:00,52.1,47.4,30.27,NNW,344,0.0,0.0,84,0.00,,,0.00,WeatherCatV1.12B45,2013-04-26 16:20:00,
2013-04-26 09:25:00,52.2,47.5,30.27,NE,39,0.0,0.0,84,0.00,,,0.00,WeatherCatV1.12B45,2013-04-26 16:25:00,
2013-04-26 09:30:00,52.5,47.8,30.27,NE,53,0.0,0.0,84,0.00,,,0.00,WeatherCatV1.12B45,2013-04-26 16:30:00,
2013-04-26 09:35:00,52.9,47.9,30.27,ENE,58,0.0,0.0,83,0.00,,,0.00,WeatherCatV1.12B45,2013-04-26 16:35:00,
2013-04-26 09:40:00,53.1,48.1,30.27,ENE,61,0.0,0.0,83,0.00,,,0.00,WeatherCatV1.12B45,2013-04-26 16:40:00,
2013-04-26 09:45:00,53.3,48.3,30.27,ENE,62,0.0,0.0,83,0.00,,,0.00,WeatherCatV1.12B45,2013-04-26 16:45:00,
2013-04-26 09:50:00,53.4,48.0,30.27,ENE,70,0.0,0.0,82,0.00,,,0.00,WeatherCatV1.12B45,2013-04-26 16:50:00,
2013-04-26 09:55:00,53.4,48.0,30.27,ESE,102,0.0,0.0,82,0.00,,,0.00,WeatherCatV1.12B45,2013-04-26 16:55:00,
2013-04-26 10:00:00,53.4,48.0,30.27,ESE,114,0.0,0.0,82,0.00,,,0.00,WeatherCatV1.12B45,2013-04-26 17:00:00,
2013-04-26 10:05:00,53.5,48.1,30.27,ESE,122,0.0,4.0,82,0.00,,,0.00,WeatherCatV1.12B45,2013-04-26 17:05:00,
2013-04-26 10:10:00,53.5,48.1,30.27,SE,128,0.0,0.0,82,0.00,,,0.00,WeatherCatV1.12B45,2013-04-26 17:10:00,
2013-04-26 10:15:00,53.5,48.1,30.28,SE,129,0.0,4.0,82,0.00,,,0.00,WeatherCatV1.12B45,2013-04-26 17:15:00,
2013-04-26 10:20:00,53.5,47.8,30.28,ESE,122,0.0,0.0,81,0.00,,,0.00,WeatherCatV1.12B45,2013-04-26 17:20:00,
2013-04-26 10:25:00,53.6,48.2,30.28,SE,124,1.0,5.0,82,0.00,,,0.00,WeatherCatV1.12B45,2013-04-26 17:25:00,
2013-04-26 10:30:00,53.6,47.9,30.28,ESE,120,1.0,2.0,81,0.00,,,0.00,WeatherCatV1.12B45,2013-04-26 17:30:00,
2013-04-26 10:35:00,53.8,48.4,30.28,SE,125,1.0,6.0,82,0.00,,,0.00,WeatherCatV1.12B45,2013-04-26 17:35:00,
2013-04-26 10:40:00,54.0,48.3,30.28,ESE,114,1.0,0.0,81,0.00,,,0.00,WeatherCatV1.12B45,2013-04-26 17:40:00,
2013-04-26 10:45:00,54.0,48.6,30.28,East,91,0.0,1.0,82,0.00,,,0.00,WeatherCatV1.12B45,2013-04-26 17:45:00,
2013-04-26 10:50:00,54.7,49.0,30.28,ESE,103,0.0,0.0,81,0.00,,,0.00,WeatherCatV1.12B45,2013-04-26 17:50:00,
2013-04-26 10:55:00,55.3,48.9,30.27,ESE,114,0.0,0.0,79,0.00,,,0.00,WeatherCatV1.12B45,2013-04-26 17:55:00,
2013-04-26 11:00:00,55.6,48.8,30.28,East,99,0.0,4.0,78,0.00,,,0.00,WeatherCatV1.12B45,2013-04-26 18:00:00,
2013-04-26 11:05:00,54.9,48.5,30.28,NNW,347,1.0,6.0,79,0.00,,,0.00,WeatherCatV1.12B45,2013-04-26 18:05:00,
2013-04-26 11:10:00,54.4,48.7,30.28,WNW,285,4.0,11.0,81,0.00,,,0.00,WeatherCatV1.12B45,2013-04-26 18:10:00,
2013-04-26 11:15:00,54.5,48.5,30.28,WNW,287,6.0,8.0,80,0.00,,,0.00,WeatherCatV1.12B45,2013-04-26 18:15:00,
2013-04-26 11:20:00,54.6,48.9,30.28,WNW,291,4.0,4.0,81,0.00,,,0.00,WeatherCatV1.12B45,2013-04-26 18:20:00,
2013-04-26 11:25:00,54.9,48.8,30.27,WNW,297,3.0,8.0,80,0.00,,,0.00,WeatherCatV1.12B45,2013-04-26 18:25:00,
2013-04-26 11:30:00,55.0,48.9,30.27,WNW,283,2.0,9.0,80,0.00,,,0.00,WeatherCatV1.12B45,2013-04-26 18:30:00,
2013-04-26 11:35:00,55.4,49.0,30.27,West,273,4.0,10.0,79,0.00,,,0.00,WeatherCatV1.12B45,2013-04-26 18:35:00,
2013-04-26 11:40:00,55.3,49.2,30.27,West,260,6.0,0.0,80,0.00,,,0.00,WeatherCatV1.12B45,2013-04-26 18:40:00,
2013-04-26 11:45:00,55.5,49.1,30.27,WSW,255,7.0,13.0,79,0.00,,,0.00,WeatherCatV1.12B45,2013-04-26 18:45:00,
2013-04-26 11:50:00,55.5,49.1,30.27,WSW,253,8.0,10.0,79,0.00,,,0.00,WeatherCatV1.12B45,2013-04-26 18:50:00,
2013-04-26 11:55:00,55.6,49.2,30.27,WSW,256,8.0,11.0,79,0.00,,,0.00,WeatherCatV1.12B45,2013-04-26 18:55:00,
2013-04-26 12:00:00,55.6,49.2,30.27,WSW,255,6.0,8.0,79,0.00,,,0.00,WeatherCatV1.12B45,2013-04-26 19:00:00,
2013-04-26 12:05:00,55.6,49.2,30.27,West,269,7.0,13.0,79,0.00,,,0.00,WeatherCatV1.12B45,2013-04-26 19:05:00,
2013-04-26 12:10:00,56.0,49.6,30.27,WSW,249,7.0,14.0,79,0.00,,,0.00,WeatherCatV1.12B45,2013-04-26 19:10:00,
2013-04-26 12:15:00,56.0,49.2,30.27,West,261,6.0,13.0,78,0.00,,,0.00,WeatherCatV1.12B45,2013-04-26 19:15:00,
2013-04-26 12:20:00,55.6,49.2,30.27,West,260,8.0,13.0,79,0.00,,,0.00,WeatherCatV1.12B45,2013-04-26 19:20:00,
2013-04-26 12:25:00,55.5,49.1,30.27,WSW,254,9.0,13.0,79,0.00,,,0.00,WeatherCatV1.12B45,2013-04-26 19:25:00,
2013-04-26 12:30:00,55.9,49.5,30.26,WSW,255,8.0,11.0,79,0.00,,,0.00,WeatherCatV1.12B45,2013-04-26 19:30:00,
2013-04-26 12:35:00,56.4,49.6,30.26,WSW,254,7.0,9.0,78,0.00,,,0.00,WeatherCatV1.12B45,2013-04-26 19:35:00,
2013-04-26 12:40:00,56.7,49.9,30.26,WSW,243,6.0,9.0,78,0.00,,,0.00,WeatherCatV1.12B45,2013-04-26 19:40:00,
2013-04-26 12:45:00,57.1,49.6,30.26,WSW,249,6.0,10.0,76,0.00,,,0.00,WeatherCatV1.12B45,2013-04-26 19:45:00,
2013-04-26 12:50:00,57.0,49.9,30.26,WSW,247,7.0,13.0,77,0.00,,,0.00,WeatherCatV1.12B45,2013-04-26 19:50:00,
2013-04-26 12:55:00,57.2,49.7,30.26,WSW,245,8.0,15.0,76,0.00,,,0.00,WeatherCatV1.12B45,2013-04-26 19:55:00,
2013-04-26 13:00:00,57.2,49.7,30.26,WSW,245,8.0,15.0,76,0.00,,,0.00,WeatherCatV1.12B45,2013-04-26 20:00:00,
2013-04-26 13:05:00,57.4,49.9,30.26,WSW,252,7.0,10.0,76,0.00,,,0.00,WeatherCatV1.12B45,2013-04-26 20:05:00,
2013-04-26 13:10:00,57.7,49.8,30.25,WSW,258,6.0,13.0,75,0.00,,,0.00,WeatherCatV1.12B45,2013-04-26 20:10:00,
2013-04-26 13:15:00,57.6,49.7,30.25,WSW,257,7.0,11.0,75,0.00,,,0.00,WeatherCatV1.12B45,2013-04-26 20:15:00,
2013-04-26 13:20:00,57.6,50.1,30.25,WSW,255,8.0,12.0,76,0.00,,,0.00,WeatherCatV1.12B45,2013-04-26 20:20:00,
2013-04-26 13:25:00,57.6,50.1,30.25,WSW,248,8.0,11.0,76,0.00,,,0.00,WeatherCatV1.12B45,2013-04-26 20:25:00,
2013-04-26 13:30:00,57.5,50.0,30.25,WSW,252,10.0,12.0,76,0.00,,,0.00,WeatherCatV1.12B45,2013-04-26 20:30:00,
2013-04-26 13:35:00,57.6,50.1,30.25,WSW,250,9.0,13.0,76,0.00,,,0.00,WeatherCatV1.12B45,2013-04-26 20:35:00,
2013-04-26 13:46:00,57.7,50.2,30.25,WSW,253,9.0,16.0,76,0.00,,,0.00,WeatherCatV1.12B45,2013-04-26 20:46:00,
2013-04-26 13:49:00,58.2,50.3,30.25,West,266,7.0,13.0,75,0.00,,,0.00,WeatherCatV1.12B45,2013-04-26 20:49:00,
2013-04-26 13:50:00,58.2,50.3,30.25,West,261,9.0,11.0,75,0.00,,,0.00,WeatherCatV1.12B45,2013-04-26 20:50:00,
2013-04-26 13:55:00,58.1,50.2,30.24,WSW,255,10.0,12.0,75,0.00,,,0.00,WeatherCatV1.12B45,2013-04-26 20:55:00,
2013-04-26 14:00:00,58.5,50.2,30.24,WSW,253,9.0,14.0,74,0.00,,,0.00,WeatherCatV1.12B45,2013-04-26 21:00:00,
2013-04-26 14:05:00,58.5,50.2,30.24,WSW,255,8.0,13.0,74,0.00,,,0.00,WeatherCatV1.12B45,2013-04-26 21:05:00,
2013-04-26 14:10:00,58.7,50.4,30.24,West,260,9.0,10.0,74,0.00,,,0.00,WeatherCatV1.12B45,2013-04-26 21:10:00,
2013-04-26 14:15:00,58.9,50.6,30.24,West,263,7.0,7.0,74,0.00,,,0.00,WeatherCatV1.12B45,2013-04-26 21:15:00,
2013-04-26 14:20:00,59.0,50.4,30.24,WSW,251,7.0,13.0,73,0.00,,,0.00,WeatherCatV1.12B45,2013-04-26 21:20:00,
2013-04-26 14:25:00,58.8,50.2,30.24,WSW,257,9.0,17.0,73,0.00,,,0.00,WeatherCatV1.12B45,2013-04-26 21:25:00,
2013-04-26 14:30:00,58.7,50.4,30.24,West,259,9.0,12.0,74,0.00,,,0.00,WeatherCatV1.12B45,2013-04-26 21:30:00,
2013-04-26 14:35:00,59.2,50.5,30.23,WSW,254,8.0,15.0,73,0.00,,,0.00,WeatherCatV1.12B45,2013-04-26 21:35:00,
2013-04-26 14:40:00,59.3,50.6,30.23,West,262,8.0,13.0,73,0.00,,,0.00,WeatherCatV1.12B45,2013-04-26 21:40:00,
2013-04-26 14:45:00,59.7,51.0,30.23,West,260,7.0,7.0,73,0.00,,,0.00,WeatherCatV1.12B45,2013-04-26 21:45:00,
2013-04-26 14:50:00,59.7,50.7,30.23,West,263,6.0,10.0,72,0.00,,,0.00,WeatherCatV1.12B45,2013-04-26 21:50:00,
2013-04-26 15:01:00,59.8,51.1,30.23,West,268,7.0,12.0,73,0.00,,,0.00,WeatherCatV1.12B45,2013-04-26 22:01:00,
2013-04-26 15:06:00,59.7,50.7,30.23,WNW,289,8.0,11.0,72,0.00,,,0.00,WeatherCatV1.12B45,2013-04-26 22:06:00,
2013-04-26 15:11:00,60.0,50.9,30.23,WSW,255,0.0,10.0,72,0.00,,,0.00,WeatherCatV1.12B45,2013-04-26 22:11:00,
2013-04-26 15:16:00,60.0,50.6,30.23,WSW,254,10.0,11.0,71,0.00,,,0.00,WeatherCatV1.12B45,2013-04-26 22:16:00,
2013-04-26 15:22:00,60.2,50.8,30.23,West,262,9.0,10.0,71,0.00,,,0.00,WeatherCatV1.12B45,2013-04-26 22:22:00,
2013-04-26 15:27:00,60.3,50.5,30.22,West,274,8.0,13.0,70,0.00,,,0.00,WeatherCatV1.12B45,2013-04-26 22:27:00,
2013-04-26 15:32:00,60.2,50.4,30.22,West,266,1.0,13.0,70,0.00,,,0.00,WeatherCatV1.12B45,2013-04-26 22:32:00,
2013-04-26 15:37:00,60.1,50.7,30.23,West,262,10.0,12.0,71,0.00,,,0.00,WeatherCatV1.12B45,2013-04-26 22:37:00,
2013-04-26 15:45:00,59.5,50.1,30.23,West,265,9.0,17.0,71,0.00,,,0.00,WeatherCatV1.12B45,2013-04-26 22:45:00,
2013-04-26 15:50:00,59.1,50.5,30.22,WSW,240,8.0,12.0,73,0.00,,,0.00,WeatherCatV1.12B45,2013-04-26 22:50:00,
2013-04-26 15:55:00,59.0,50.4,30.22,WSW,247,13.0,18.0,73,0.00,,,0.00,WeatherCatV1.12B45,2013-04-26 22:55:00,
2013-04-26 16:00:00,59.3,50.6,30.22,West,265,8.0,15.0,73,0.00,,,0.00,WeatherCatV1.12B45,2013-04-26 23:00:00,
2013-04-26 16:06:00,58.7,50.1,30.22,WNW,298,11.0,16.0,73,0.00,,,0.00,WeatherCatV1.12B45,2013-04-26 23:06:00,
2013-04-26 16:11:00,58.3,50.0,30.22,West,273,13.0,21.0,74,0.00,,,0.00,WeatherCatV1.12B45,2013-04-26 23:11:00,
2013-04-26 16:16:00,57.3,49.8,30.22,West,263,6.0,22.0,76,0.00,,,0.00,WeatherCatV1.12B45,2013-04-26 23:16:00,
2013-04-26 16:21:00,57.0,49.5,30.22,SSW,202,12.0,23.0,76,0.00,,,0.00,WeatherCatV1.12B45,2013-04-26 23:21:00,
2013-04-26 16:27:00,57.6,50.1,30.22,WSW,240,8.0,23.0,76,0.00,,,0.00,WeatherCatV1.12B45,2013-04-26 23:27:00,
2013-04-26 16:32:00,57.8,49.9,30.21,SW,231,7.0,17.0,75,0.00,,,0.00,WeatherCatV1.12B45,2013-04-26 23:32:00,
2013-04-26 16:38:00,57.5,49.6,30.21,WSW,246,9.0,16.0,75,0.00,,,0.00,WeatherCatV1.12B45,2013-04-26 23:38:00,
2013-04-26 16:43:00,58.0,50.5,30.21,WSW,257,9.0,15.0,76,0.00,,,0.00,WeatherCatV1.12B45,2013-04-26 23:43:00,
2013-04-26 16:49:00,58.6,50.3,30.21,SW,229,9.0,13.0,74,0.00,,,0.00,WeatherCatV1.12B45,2013-04-26 23:49:00,
2013-04-26 16:54:00,58.6,50.3,30.21,West,269,13.0,20.0,74,0.00,,,0.00,WeatherCatV1.12B45,2013-04-26 23:54:00,
2013-04-26 17:06:00,59.6,50.9,30.21,West,272,7.0,11.0,73,0.00,,,0.00,WeatherCatV1.12B45,2013-04-27 00:06:00,
2013-04-26 17:11:00,59.4,50.4,30.21,SSE,161,5.0,15.0,72,0.00,,,0.00,WeatherCatV1.12B45,2013-04-27 00:11:00,
2013-04-26 17:16:00,59.2,50.5,30.21,SW,236,9.0,13.0,73,0.00,,,0.00,WeatherCatV1.12B45,2013-04-27 00:16:00,
2013-04-26 17:21:00,58.6,50.0,30.21,SW,236,7.0,16.0,73,0.00,,,0.00,WeatherCatV1.12B45,2013-04-27 00:21:00,
2013-04-26 17:27:00,58.0,49.8,30.21,WSW,254,0.0,8.0,74,0.00,,,0.00,WeatherCatV1.12B45,2013-04-27 00:27:00,
2013-04-26 17:32:00,57.9,49.7,30.21,SW,216,9.0,9.0,74,0.00,,,0.00,WeatherCatV1.12B45,2013-04-27 00:32:00,
2013-04-26 17:37:00,58.1,50.2,30.21,SSW,197,7.0,9.0,75,0.00,,,0.00,WeatherCatV1.12B45,2013-04-27 00:37:00,
2013-04-26 17:42:00,58.8,50.5,30.21,WSW,251,5.0,7.0,74,0.00,,,0.00,WeatherCatV1.12B45,2013-04-27 00:42:00,
2013-04-26 17:47:00,59.5,50.8,30.21,SSW,208,0.0,6.0,73,0.00,,,0.00,WeatherCatV1.12B45,2013-04-27 00:47:00,
2013-04-26 17:52:00,59.5,50.5,30.21,SSW,213,0.0,5.0,72,0.00,,,0.00,WeatherCatV1.12B45,2013-04-27 00:52:00,
2013-04-26 17:57:00,59.5,50.5,30.21,SSW,200,3.0,8.0,72,0.00,,,0.00,WeatherCatV1.12B45,2013-04-27 00:57:00,
2013-04-26 18:02:00,59.6,50.2,30.21,SSW,197,3.0,5.0,71,0.00,,,0.00,WeatherCatV1.12B45,2013-04-27 01:02:00,
2013-04-26 18:07:00,59.8,50.0,30.21,SSW,209,5.0,7.0,70,0.00,,,0.00,WeatherCatV1.12B45,2013-04-27 01:07:00,
2013-04-26 18:12:00,59.4,50.4,30.21,SW,221,0.0,0.0,72,0.00,,,0.00,WeatherCatV1.12B45,2013-04-27 01:12:00,
2013-04-26 18:17:00,59.6,50.2,30.21,SW,221,5.0,5.0,71,0.00,,,0.00,WeatherCatV1.12B45,2013-04-27 01:17:00,
2013-04-26 18:22:00,59.8,50.0,30.21,SSW,210,0.0,0.0,70,0.00,,,0.00,WeatherCatV1.12B45,2013-04-27 01:22:00,
2013-04-26 18:27:00,60.2,50.0,30.21,WSW,250,0.0,6.0,69,0.00,,,0.00,WeatherCatV1.12B45,2013-04-27 01:27:00,
2013-04-26 18:32:00,60.4,50.2,30.21,NNE,19,0.0,0.0,69,0.00,,,0.00,WeatherCatV1.12B45,2013-04-27 01:32:00,
2013-04-26 18:37:00,59.7,49.9,30.21,NNW,342,0.0,1.0,70,0.00,,,0.00,WeatherCatV1.12B45,2013-04-27 01:37:00,
2013-04-26 18:42:00,59.3,49.5,30.21,West,281,0.0,0.0,70,0.00,,,0.00,WeatherCatV1.12B45,2013-04-27 01:42:00,
2013-04-26 18:47:00,58.5,49.1,30.22,WNW,301,0.0,9.0,71,0.00,,,0.00,WeatherCatV1.12B45,2013-04-27 01:47:00,
2013-04-26 18:52:00,57.9,48.6,30.21,WNW,300,0.0,0.0,71,0.00,,,0.00,WeatherCatV1.12B45,2013-04-27 01:52:00,
2013-04-26 18:57:00,57.7,48.7,30.21,NNE,25,0.0,2.0,72,0.00,,,0.00,WeatherCatV1.12B45,2013-04-27 01:57:00,
2013-04-26 19:02:00,57.5,48.9,30.21,ENE,72,0.0,0.0,73,0.00,,,0.00,WeatherCatV1.12B45,2013-04-27 02:02:00,
2013-04-26 19:07:00,57.3,48.7,30.21,ENE,64,0.0,0.0,73,0.00,,,0.00,WeatherCatV1.12B45,2013-04-27 02:07:00,
2013-04-26 19:12:00,57.2,48.6,30.21,ENE,64,0.0,0.0,73,0.00,,,0.00,WeatherCatV1.12B45,2013-04-27 02:12:00,
2013-04-26 19:17:00,57.4,48.8,30.21,ENE,64,0.0,0.0,73,0.00,,,0.00,WeatherCatV1.12B45,2013-04-27 02:17:00,
2013-04-26 19:22:00,57.5,48.9,30.21,South,175,0.0,4.0,73,0.00,,,0.00,WeatherCatV1.12B45,2013-04-27 02:22:00,
2013-04-26 19:27:00,57.0,48.8,30.21,South,173,0.0,0.0,74,0.00,,,0.00,WeatherCatV1.12B45,2013-04-27 02:27:00,
2013-04-26 19:32:00,56.8,49.0,30.22,SSE,166,0.0,0.0,75,0.00,,,0.00,WeatherCatV1.12B45,2013-04-27 02:32:00,
2013-04-26 19:37:00,56.7,48.5,30.21,SSE,166,0.0,0.0,74,0.00,,,0.00,WeatherCatV1.12B45,2013-04-27 02:37:00,
2013-04-26 19:42:00,56.5,47.9,30.22,SSE,166,0.0,0.0,73,0.00,,,0.00,WeatherCatV1.12B45,2013-04-27 02:42:00,
2013-04-26 19:47:00,56.4,48.2,30.22,SSE,166,0.0,0.0,74,0.00,,,0.00,WeatherCatV1.12B45,2013-04-27 02:47:00,
2013-04-26 19:52:00,56.3,48.5,30.22,SSE,166,0.0,0.0,75,0.00,,,0.00,WeatherCatV1.12B45,2013-04-27 02:52:00,
2013-04-26 19:57:00,56.2,49.1,30.22,SSE,166,0.0,0.0,77,0.00,,,0.00,WeatherCatV1.12B45,2013-04-27 02:57:00,
2013-04-26 20:02:00,56.1,49.3,30.22,SSE,166,0.0,0.0,78,0.00,,,0.00,WeatherCatV1.12B45,2013-04-27 03:02:00,
2013-04-26 20:07:00,56.0,48.9,30.22,SSE,166,0.0,0.0,77,0.00,,,0.00,WeatherCatV1.12B45,2013-04-27 03:07:00,
2013-04-26 20:12:00,55.7,48.3,30.22,SSE,166,0.0,0.0,76,0.00,,,0.00,WeatherCatV1.12B45,2013-04-27 03:12:00,
2013-04-26 20:17:00,55.5,48.4,30.22,SSE,166,0.0,0.0,77,0.00,,,0.00,WeatherCatV1.12B45,2013-04-27 03:17:00,
2013-04-26 20:22:00,55.3,48.2,30.22,SSE,166,0.0,0.0,77,0.00,,,0.00,WeatherCatV1.12B45,2013-04-27 03:22:00,
2013-04-26 20:27:00,55.2,48.8,30.22,SSE,166,0.0,0.0,79,0.00,,,0.00,WeatherCatV1.12B45,2013-04-27 03:27:00,
2013-04-26 20:32:00,55.1,48.4,30.23,South,186,0.0,0.0,78,0.00,,,0.00,WeatherCatV1.12B45,2013-04-27 03:32:00,
2013-04-26 20:37:00,55.0,48.6,30.23,SSW,192,0.0,0.0,79,0.00,,,0.00,WeatherCatV1.12B45,2013-04-27 03:37:00,
2013-04-26 20:43:00,54.9,48.5,30.23,South,186,0.0,0.0,79,0.00,,,0.00,WeatherCatV1.12B45,2013-04-27 03:43:00,
2013-04-26 20:48:00,54.7,48.3,30.23,South,186,0.0,0.0,79,0.00,,,0.00,WeatherCatV1.12B45,2013-04-27 03:48:00,
2013-04-26 20:53:00,54.5,48.5,30.23,SSW,213,0.0,0.0,80,0.00,,,0.00,WeatherCatV1.12B45,2013-04-27 03:53:00,
2013-04-26 20:58:00,54.4,48.4,30.24,SSW,213,0.0,0.0,80,0.00,,,0.00,WeatherCatV1.12B45,2013-04-27 03:58:00,
2013-04-26 21:01:00,54.3,47.9,30.24,SSW,213,0.0,0.0,79,0.00,,,0.00,WeatherCatV1.12B45,2013-04-27 04:01:00,
2013-04-26 21:02:00,54.3,47.9,30.24,SSW,213,0.0,0.0,79,0.00,,,0.00,WeatherCatV1.12B45,2013-04-27 04:02:00,
2013-04-26 21:03:00,54.3,47.9,30.24,SSW,213,0.0,0.0,79,0.00,,,0.00,WeatherCatV1.12B45,2013-04-27 04:03:00,
2013-04-26 21:04:00,54.3,48.3,30.24,SSW,213,0.0,0.0,80,0.00,,,0.00,WeatherCatV1.12B45,2013-04-27 04:04:00,
2013-04-26 21:05:00,54.3,48.3,30.24,SSW,213,0.0,0.0,80,0.00,,,0.00,WeatherCatV1.12B45,2013-04-27 04:05:00,
2013-04-26 21:10:00,54.2,48.2,30.24,SSW,213,0.0,0.0,80,0.00,,,0.00,WeatherCatV1.12B45,2013-04-27 04:10:00,
2013-04-26 21:15:00,54.1,48.1,30.24,SSW,213,0.0,0.0,80,0.00,,,0.00,WeatherCatV1.12B45,2013-04-27 04:15:00,
2013-04-26 21:20:00,54.0,48.0,30.24,West,267,0.0,0.0,80,0.00,,,0.00,WeatherCatV1.12B45,2013-04-27 04:20:00,
2013-04-26 21:25:00,53.4,47.7,30.24,SW,233,0.0,5.0,81,0.00,,,0.00,WeatherCatV1.12B45,2013-04-27 04:25:00,
2013-04-26 21:30:00,53.2,47.5,30.24,WSW,253,1.0,4.0,81,0.00,,,0.00,WeatherCatV1.12B45,2013-04-27 04:30:00,
2013-04-26 21:35:00,53.0,47.3,30.24,West,273,4.0,7.0,81,0.00,,,0.00,WeatherCatV1.12B45,2013-04-27 04:35:00,
2013-04-26 21:40:00,52.9,47.2,30.24,WSW,257,7.0,9.0,81,0.00,,,0.00,WeatherCatV1.12B45,2013-04-27 04:40:00,
2013-04-26 21:45:00,52.6,47.3,30.25,WSW,254,5.0,8.0,82,0.00,,,0.00,WeatherCatV1.12B45,2013-04-27 04:45:00,
2013-04-26 21:50:00,52.4,47.4,30.25,West,279,5.0,7.0,83,0.00,,,0.00,WeatherCatV1.12B45,2013-04-27 04:50:00,
2013-04-26 21:55:00,52.1,47.1,30.25,WSW,255,12.0,14.0,83,0.00,,,0.00,WeatherCatV1.12B45,2013-04-27 04:55:00,
2013-04-26 22:00:00,51.2,46.8,30.25,WSW,250,9.0,13.0,85,0.00,,,0.00,WeatherCatV1.12B45,2013-04-27 05:00:00,
2013-04-26 22:05:00,50.9,46.9,30.25,West,267,0.0,8.0,86,0.00,,,0.00,WeatherCatV1.12B45,2013-04-27 05:05:00,
2013-04-26 22:10:00,50.9,46.9,30.25,SSW,209,0.0,12.0,86,0.00,,,0.00,WeatherCatV1.12B45,2013-04-27 05:10:00,
2013-04-26 22:15:00,50.8,46.8,30.25,WNW,286,12.0,12.0,86,0.00,,,0.00,WeatherCatV1.12B45,2013-04-27 05:15:00,
2013-04-26 22:20:00,50.7,47.0,30.26,WSW,257,8.0,11.0,87,0.00,,,0.00,WeatherCatV1.12B45,2013-04-27 05:20:00,
2013-04-26 22:25:00,50.6,46.9,30.25,West,270,3.0,11.0,87,0.00,,,0.00,WeatherCatV1.12B45,2013-04-27 05:25:00,
2013-04-26 22:30:00,50.6,46.9,30.25,WSW,238,12.0,13.0,87,0.00,,,0.00,WeatherCatV1.12B45,2013-04-27 05:30:00,
2013-04-26 22:35:00,50.5,46.8,30.25,WSW,243,13.0,14.0,87,0.00,,,0.00,WeatherCatV1.12B45,2013-04-27 05:35:00,
2013-04-26 22:40:00,50.7,47.0,30.26,WSW,255,6.0,10.0,87,0.00,,,0.00,WeatherCatV1.12B45,2013-04-27 05:40:00,
2013-04-26 22:45:00,50.9,46.9,30.26,WSW,245,1.0,9.0,86,0.00,,,0.00,WeatherCatV1.12B45,2013-04-27 05:45:00,
2013-04-26 22:50:00,50.8,46.8,30.26,West,277,3.0,7.0,86,0.00,,,0.00,WeatherCatV1.12B45,2013-04-27 05:50:00,
2013-04-26 22:55:00,50.7,46.7,30.25,WSW,254,6.0,8.0,86,0.00,,,0.00,WeatherCatV1.12B45,2013-04-27 05:55:00,
2013-04-26 23:00:00,50.6,46.9,30.25,WSW,247,6.0,10.0,87,0.00,,,0.00,WeatherCatV1.12B45,2013-04-27 06:00:00,
2013-04-26 23:05:00,50.5,46.8,30.25,West,262,6.0,10.0,87,0.00,,,0.00,WeatherCatV1.12B45,2013-04-27 06:05:00,
2013-04-26 23:10:00,50.4,46.7,30.26,WNW,284,5.0,6.0,87,0.00,,,0.00,WeatherCatV1.12B45,2013-04-27 06:10:00,
2013-04-26 23:15:00,50.5,46.8,30.26,West,262,8.0,10.0,87,0.00,,,0.00,WeatherCatV1.12B45,2013-04-27 06:15:00,
2013-04-26 23:20:00,50.4,46.7,30.26,WSW,256,5.0,8.0,87,0.00,,,0.00,WeatherCatV1.12B45,2013-04-27 06:20:00,
2013-04-26 23:25:00,50.4,46.7,30.26,West,277,4.0,7.0,87,0.00,,,0.00,WeatherCatV1.12B45,2013-04-27 06:25:00,
2013-04-26 23:30:00,50.2,46.8,30.26,WSW,257,10.0,15.0,88,0.00,,,0.00,WeatherCatV1.12B45,2013-04-27 06:30:00,
2013-04-26 23:35:00,50.0,46.6,30.26,WSW,248,9.0,12.0,88,0.00,,,0.00,WeatherCatV1.12B45,2013-04-27 06:35:00,
2013-04-26 23:40:00,49.9,46.5,30.26,WSW,238,8.0,14.0,88,0.00,,,0.00,WeatherCatV1.12B45,2013-04-27 06:40:00,
2013-04-26 23:45:00,49.8,46.7,30.26,WSW,255,9.0,10.0,89,0.00,,,0.00,WeatherCatV1.12B45,2013-04-27 06:45:00,
2013-04-26 23:50:00,49.8,46.4,30.26,West,262,8.0,10.0,88,0.00,,,0.00,WeatherCatV1.12B45,2013-04-27 06:50:00,
2013-04-26 23:55:00,49.8,46.7,30.26,WSW,237,2.0,10.0,89,0.00,,,0.00,WeatherCatV1.12B45,2013-04-27 06:55:00,